createdAt,value
2023-03-18T00:01:39.128Z,42.73
2023-03-18T00:04:07.900Z,36.07
2023-03-18T00:06:39.623Z,43.63
2023-03-18T00:09:08.297Z,41.60
2023-03-18T00:11:37.620Z,54.37
2023-03-18T00:14:06.610Z,53.07
2023-03-18T00:16:36.934Z,57.43
2023-03-18T00:19:06.755Z,56.50
2023-03-18T00:21:36.889Z,55.47
2023-03-18T00:24:08.889Z,65.40
2023-03-18T00:26:37.427Z,61.33
2023-03-18T00:29:06.274Z,58.00
2023-03-18T00:31:35.942Z,54.03
2023-03-18T00:34:04.833Z,54.27
2023-03-18T00:36:33.605Z,49.20
2023-03-18T00:39:03.746Z,46.27
2023-03-18T00:41:39.631Z,39.07
2023-03-18T00:44:08.631Z,40.73
2023-03-18T00:46:39.184Z,38.53
2023-03-18T00:49:09.736Z,33.63
2023-03-18T00:51:41.347Z,38.37
2023-03-18T00:54:13.671Z,38.77
2023-03-18T00:56:43.210Z,33.33
2023-03-18T00:59:11.949Z,36.93
2023-03-18T01:01:41.114Z,41.03
2023-03-18T01:04:09.868Z,37.47
2023-03-18T01:06:39.215Z,41.07
2023-03-18T01:09:10.807Z,47.77
2023-03-18T01:11:40.956Z,44.33
2023-03-18T01:14:10.584Z,40.27
2023-03-18T01:16:39.335Z,34.23
2023-03-18T01:19:09.615Z,37.97
2023-03-18T01:21:38.302Z,39.73
2023-03-18T01:24:07.511Z,41.27
2023-03-18T01:26:37.092Z,44.80
2023-03-18T01:29:06.188Z,44.37
2023-03-18T01:31:37.430Z,42.00
2023-03-18T01:34:06.391Z,35.60
2023-03-18T01:36:35.409Z,36.23
2023-03-18T01:39:05.813Z,41.37
2023-03-18T01:41:34.563Z,33.97
2023-03-18T01:44:04.457Z,38.80
2023-03-18T01:46:39.141Z,39.80
2023-03-18T01:49:16.437Z,35.43
2023-03-18T01:51:48.151Z,38.83
2023-03-18T01:54:18.703Z,42.47
2023-03-18T01:56:50.443Z,54.97
2023-03-18T01:59:21.602Z,51.73
2023-03-18T02:02:01.924Z,50.60
2023-03-18T02:04:33.608Z,54.00
2023-03-18T02:07:02.345Z,49.67
2023-03-18T02:09:31.342Z,60.47
2023-03-18T02:12:06.988Z,48.30
2023-03-18T02:14:35.741Z,50.53
2023-03-18T02:17:12.788Z,56.37
2023-03-18T02:19:59.729Z,51.50
2023-03-18T02:22:38.952Z,56.80
2023-03-18T02:25:37.363Z,55.13
2023-03-18T02:28:09.567Z,55.47
2023-03-18T02:30:47.663Z,55.13
2023-03-18T02:33:19.406Z,59.63
2023-03-18T02:35:51.539Z,53.47
2023-03-18T02:38:20.214Z,48.70
2023-03-18T02:40:49.018Z,57.63
2023-03-18T02:43:34.629Z,54.77
2023-03-18T02:46:07.511Z,60.93
2023-03-18T02:48:39.114Z,64.80
2023-03-18T02:51:09.051Z,64.93
2023-03-18T02:53:38.860Z,62.30
2023-03-18T02:56:10.694Z,59.33
2023-03-18T02:58:41.823Z,62.47
2023-03-18T03:01:11.357Z,58.63
2023-03-18T03:03:41.094Z,61.63
2023-03-18T03:06:11.151Z,58.70
2023-03-18T03:08:40.421Z,56.80
2023-03-18T03:11:09.341Z,54.20
2023-03-18T03:13:39.884Z,51.63
2023-03-18T03:16:11.733Z,47.40
2023-03-18T03:18:40.767Z,52.03
2023-03-18T03:21:10.050Z,41.33
2023-03-18T03:23:39.165Z,43.17
2023-03-18T03:26:08.418Z,41.73
2023-03-18T03:28:37.059Z,43.73
2023-03-18T03:31:06.921Z,39.00
2023-03-18T03:33:36.361Z,39.33
2023-03-18T03:36:05.216Z,39.70
2023-03-18T03:38:33.876Z,44.53
2023-03-18T03:41:02.971Z,48.27
2023-03-18T03:43:32.096Z,36.33
2023-03-18T03:46:00.853Z,39.20
2023-03-18T03:48:29.608Z,43.57
2023-03-18T03:50:58.662Z,38.67
2023-03-18T03:53:28.327Z,37.53
2023-03-18T03:55:59.169Z,37.87
2023-03-18T03:58:27.803Z,41.30
2023-03-18T04:00:56.457Z,40.23
2023-03-18T04:03:25.621Z,40.93
2023-03-18T04:05:54.759Z,34.40
2023-03-18T04:08:23.525Z,37.70
2023-03-18T04:10:52.075Z,40.50
2023-03-18T04:13:20.851Z,40.13
2023-03-18T04:15:49.458Z,41.97
2023-03-18T04:18:18.087Z,37.57
2023-03-18T04:20:48.059Z,40.90
2023-03-18T04:23:16.614Z,43.90
2023-03-18T04:25:45.252Z,45.00
2023-03-18T04:28:14.367Z,39.33
2023-03-18T04:30:43.048Z,42.83
2023-03-18T04:33:13.045Z,40.20
2023-03-18T04:35:43.648Z,44.93
2023-03-18T04:38:12.888Z,45.03
2023-03-18T04:40:42.939Z,38.23
2023-03-18T04:43:13.133Z,50.23
2023-03-18T04:45:41.845Z,46.37
2023-03-18T04:48:10.445Z,49.70
2023-03-18T04:50:39.268Z,46.63
2023-03-18T04:53:10.369Z,45.77
2023-03-18T04:55:39.634Z,50.80
2023-03-18T04:58:08.395Z,44.33
2023-03-18T05:00:37.588Z,44.83
2023-03-18T05:03:07.427Z,47.40
2023-03-18T05:05:38.461Z,47.90
2023-03-18T05:08:07.680Z,45.70
2023-03-18T05:10:36.442Z,52.47
2023-03-18T05:13:05.002Z,43.23
2023-03-18T05:15:34.749Z,39.20
2023-03-18T05:18:04.897Z,45.23
2023-03-18T05:20:33.960Z,41.80
2023-03-18T05:23:03.160Z,46.47
2023-03-18T05:25:31.933Z,41.80
2023-03-18T05:28:01.165Z,42.93
2023-03-18T05:30:29.954Z,44.40
2023-03-18T05:32:58.734Z,39.77
2023-03-18T05:35:27.592Z,33.77
2023-03-18T05:37:56.502Z,33.70
2023-03-18T05:40:25.059Z,27.93
2023-03-18T05:42:56.611Z,30.13
2023-03-18T05:45:24.354Z,27.03
2023-03-18T05:47:53.275Z,25.03
2023-03-18T05:50:36.590Z,28.87
2023-03-18T05:53:06.702Z,37.10
2023-03-18T05:55:36.717Z,39.07
2023-03-18T05:58:06.316Z,40.80
2023-03-18T06:00:35.476Z,48.83
2023-03-18T06:03:04.184Z,53.23
2023-03-18T06:05:33.472Z,47.27
2023-03-18T06:08:03.082Z,54.60
2023-03-18T06:10:32.414Z,51.23
2023-03-18T06:13:01.180Z,51.83
2023-03-18T06:15:30.700Z,55.70
2023-03-18T06:17:59.567Z,54.00
2023-03-18T06:20:28.272Z,56.00
2023-03-18T06:22:57.026Z,47.83
2023-03-18T06:25:26.600Z,45.70
2023-03-18T06:27:55.180Z,41.63
2023-03-18T06:30:26.248Z,42.87
2023-03-18T06:32:55.017Z,36.10
2023-03-18T06:35:28.304Z,37.17
2023-03-18T06:37:57.054Z,37.57
2023-03-18T06:40:26.133Z,37.73
2023-03-18T06:42:54.855Z,38.80
2023-03-18T06:45:23.649Z,40.03
2023-03-18T06:47:52.300Z,38.93
2023-03-18T06:50:22.482Z,40.77
2023-03-18T06:52:51.176Z,39.10
2023-03-18T06:55:19.894Z,40.50
2023-03-18T06:57:48.616Z,41.30
2023-03-18T07:00:19.942Z,50.60
2023-03-18T07:02:48.898Z,45.27
2023-03-18T07:05:17.951Z,41.20
2023-03-18T07:07:46.920Z,47.30
2023-03-18T07:10:24.513Z,45.93
2023-03-18T07:12:53.278Z,50.80
2023-03-18T07:15:24.079Z,42.60
2023-03-18T07:17:53.206Z,53.43
2023-03-18T07:20:27.281Z,52.73
2023-03-18T07:22:55.965Z,55.80
2023-03-18T07:25:24.797Z,56.70
2023-03-18T07:27:57.915Z,57.83
2023-03-18T07:30:31.128Z,54.17
2023-03-18T07:33:06.029Z,47.63
2023-03-18T07:35:36.958Z,51.87
2023-03-18T07:38:05.624Z,49.53
2023-03-18T07:40:34.227Z,42.93
2023-03-18T07:43:03.612Z,50.50
2023-03-18T07:45:32.643Z,45.40
2023-03-18T07:48:01.266Z,40.77
2023-03-18T07:50:38.686Z,43.87
2023-03-18T07:53:07.468Z,46.73
2023-03-18T07:55:38.678Z,48.30
2023-03-18T07:58:07.870Z,37.87
2023-03-18T08:00:36.547Z,40.23
2023-03-18T08:03:06.090Z,37.60
2023-03-18T08:05:35.090Z,41.23
2023-03-18T08:08:05.456Z,44.60
2023-03-18T08:10:34.235Z,38.03
2023-03-18T08:13:08.795Z,38.80
2023-03-18T08:15:37.570Z,34.27
2023-03-18T08:18:09.051Z,34.23
2023-03-18T08:20:36.565Z,38.87
2023-03-18T08:23:07.690Z,37.87
2023-03-18T08:25:35.941Z,31.77
2023-03-18T08:28:07.758Z,37.23
2023-03-18T08:30:36.674Z,35.70
2023-03-18T08:33:05.850Z,38.77
2023-03-18T08:35:36.307Z,35.47
2023-03-18T08:38:04.908Z,33.87
2023-03-18T08:40:34.943Z,32.13
2023-03-18T08:43:03.591Z,33.07
2023-03-18T08:46:08.162Z,27.70
2023-03-18T08:55:45.700Z,39.53
2023-03-18T09:01:33.122Z,16.50
2023-03-18T09:04:25.458Z,21.30
2023-03-18T09:14:46.154Z,20.07
2023-03-18T09:23:08.890Z,17.87
2023-03-18T09:32:03.983Z,21.87
2023-03-18T09:40:58.336Z,10.87
2023-03-18T09:45:36.416Z,10.70
2023-03-18T09:50:24.787Z,9.70
2023-03-18T09:56:50.572Z,8.67
2023-03-18T10:15:59.764Z,11.07
2023-03-18T10:18:37.190Z,10.27
2023-03-18T10:21:24.049Z,11.90
2023-03-18T10:25:17.194Z,10.13
2023-03-18T10:45:22.137Z,6.33
2023-03-18T10:48:10.929Z,4.97
2023-03-18T11:23:52.370Z,5.50
2023-03-18T11:37:02.947Z,4.60
2023-03-18T11:39:34.745Z,4.90
2023-03-18T11:42:11.213Z,5.60
2023-03-18T11:44:40.294Z,6.53
2023-03-18T11:47:18.017Z,6.10
2023-03-18T11:49:47.157Z,4.97
2023-03-18T11:52:42.969Z,3.80
2023-03-18T11:55:16.495Z,8.70
2023-03-18T11:57:59.843Z,5.77
2023-03-18T12:00:43.640Z,3.87
2023-03-18T12:04:12.593Z,4.03
2023-03-18T12:06:45.390Z,6.60
2023-03-18T12:09:23.559Z,4.60
2023-03-18T12:11:57.090Z,7.13
2023-03-18T12:14:56.679Z,5.30
2023-03-18T12:17:49.898Z,4.30
2023-03-18T12:20:27.952Z,6.37
2023-03-18T12:23:08.058Z,4.27
2023-03-18T12:25:45.711Z,3.93
2023-03-18T12:28:47.552Z,5.87
2023-03-18T12:31:45.224Z,5.57
2023-03-18T12:34:35.280Z,6.43
2023-03-18T12:37:28.479Z,5.60
2023-03-18T12:40:36.426Z,6.10
2023-03-18T12:43:28.254Z,4.00
2023-03-18T12:46:02.888Z,6.80
2023-03-18T12:48:44.144Z,5.07
2023-03-18T12:51:20.418Z,7.53
2023-03-18T12:54:05.300Z,4.90
2023-03-18T12:56:37.025Z,6.23
2023-03-18T12:59:15.806Z,3.70
2023-03-18T13:01:49.898Z,6.30
2023-03-18T13:04:22.295Z,4.53
2023-03-18T13:07:06.127Z,7.07
2023-03-18T13:09:40.740Z,4.78
2023-03-18T13:12:24.718Z,5.37
2023-03-18T13:15:18.999Z,4.40
2023-03-18T13:17:50.300Z,5.17
2023-03-18T13:20:22.109Z,6.10
2023-03-18T13:23:00.022Z,4.80
2023-03-18T13:25:56.601Z,5.33
2023-03-18T13:28:41.205Z,4.92
2023-03-18T13:31:31.151Z,4.40
2023-03-18T13:34:06.127Z,3.63
2023-03-18T13:36:46.583Z,4.23
2023-03-18T13:39:43.956Z,5.05
2023-03-18T13:42:27.042Z,6.33
2023-03-18T13:45:23.097Z,3.80
2023-03-18T13:48:19.836Z,3.67
2023-03-18T13:50:50.259Z,4.25
2023-03-18T13:53:33.484Z,3.60
2023-03-18T13:56:05.482Z,5.33
2023-03-18T13:58:48.879Z,6.67
2023-03-18T14:01:32.459Z,4.97
2023-03-18T14:04:23.161Z,4.27
2023-03-18T14:07:18.457Z,11.60
2023-03-18T14:10:18.360Z,7.83
2023-03-18T14:12:43.066Z,4.40
2023-03-18T14:15:20.419Z,5.57
2023-03-18T14:17:59.489Z,6.93
2023-03-18T14:20:40.520Z,5.33
2023-03-18T14:23:34.313Z,5.13
2023-03-18T14:26:54.894Z,8.90
2023-03-18T14:29:33.408Z,25.77
2023-03-18T14:32:04.928Z,6.10
2023-03-18T14:35:20.983Z,4.90
2023-03-18T14:38:03.428Z,6.80
2023-03-18T14:40:44.615Z,5.05
2023-03-18T14:43:29.391Z,9.50
2023-03-18T14:46:04.456Z,4.60
2023-03-18T14:48:35.741Z,4.77
2023-03-18T14:51:10.236Z,4.67
2023-03-18T14:53:56.491Z,4.23
2023-03-18T14:56:27.674Z,3.20
2023-03-18T14:58:57.152Z,5.07
2023-03-18T15:01:31.891Z,5.40
2023-03-18T15:04:02.169Z,3.70
2023-03-18T15:06:35.154Z,7.53
2023-03-18T15:09:08.859Z,6.57
2023-03-18T15:11:44.518Z,4.77
2023-03-18T15:14:30.863Z,7.83
2023-03-18T15:17:05.043Z,4.93
2023-03-18T15:19:36.897Z,4.40
2023-03-18T15:22:07.952Z,6.87
2023-03-18T15:24:42.501Z,6.67
2023-03-18T15:27:31.805Z,4.27
2023-03-18T15:30:06.776Z,5.87
2023-03-18T15:32:48.191Z,7.03
2023-03-18T15:35:28.925Z,4.87
2023-03-18T15:38:06.836Z,7.27
2023-03-18T15:40:41.422Z,6.63
2023-03-18T15:43:39.513Z,3.80
2023-03-18T16:02:18.233Z,3.33
2023-03-18T16:05:19.345Z,5.37
2023-03-18T16:24:18.985Z,4.57
2023-03-18T16:30:25.686Z,7.43
2023-03-18T17:07:09.734Z,8.90
2023-03-18T20:22:05.557Z,29.93
2023-03-18T20:41:29.601Z,25.87
2023-03-18T20:44:00.840Z,35.80
2023-03-18T20:46:31.518Z,23.70
2023-03-18T20:49:00.743Z,30.57
2023-03-18T20:51:34.192Z,24.50
2023-03-18T20:54:17.802Z,35.70
2023-03-18T20:56:49.603Z,27.37
2023-03-18T20:59:19.962Z,32.33
2023-03-18T21:01:48.721Z,35.93
2023-03-18T21:04:20.917Z,24.10
2023-03-18T21:06:49.552Z,34.90
2023-03-18T21:09:18.059Z,25.07
2023-03-18T21:11:46.701Z,30.00
2023-03-18T21:14:22.452Z,30.97
2023-03-18T21:16:51.921Z,32.13
2023-03-18T21:19:23.693Z,33.00
2023-03-18T21:21:52.340Z,30.77
2023-03-18T21:24:26.845Z,28.27
2023-03-18T21:27:04.583Z,30.00
2023-03-18T21:29:26.810Z,26.17
2023-03-18T21:31:55.863Z,32.80
2023-03-18T21:34:24.581Z,25.83
2023-03-18T21:36:53.122Z,23.17
2023-03-18T21:39:33.752Z,24.47
2023-03-18T21:42:07.453Z,19.97
2023-03-18T21:44:36.391Z,26.57
2023-03-18T21:47:05.036Z,25.20
2023-03-18T21:49:34.608Z,23.37
2023-03-18T21:52:03.715Z,25.50
2023-03-18T21:54:32.298Z,30.47
2023-03-18T21:57:02.403Z,30.57
2023-03-18T21:59:31.170Z,35.37
2023-03-18T22:01:59.828Z,47.73
2023-03-18T22:04:28.557Z,34.50
2023-03-18T22:07:06.603Z,28.67
2023-03-18T22:09:35.270Z,28.07
2023-03-18T22:12:03.979Z,33.40
2023-03-18T22:14:32.507Z,21.67
2023-03-18T22:17:01.081Z,29.60
2023-03-18T22:19:29.805Z,34.97
2023-03-18T22:21:58.603Z,23.77
2023-03-18T22:24:29.995Z,26.17
2023-03-18T22:27:00.453Z,30.93
2023-03-18T22:29:29.407Z,27.17
2023-03-18T22:31:58.603Z,25.00
2023-03-18T22:34:28.878Z,30.53
2023-03-18T22:36:59.176Z,38.80
2023-03-18T22:39:29.326Z,32.43
2023-03-18T22:42:20.761Z,30.93
2023-03-18T22:48:07.856Z,32.87
2023-03-18T23:14:57.679Z,30.70
2023-03-18T23:34:18.026Z,39.70
2023-03-18T23:43:37.011Z,28.53
2023-03-18T23:49:23.540Z,43.13
2023-03-18T23:51:56.197Z,42.50
2023-03-18T23:54:32.794Z,31.80
2023-03-18T23:57:19.035Z,36.90
